Time;durP1;ratioP1;P1;durP2;ratioP2;P2;SDS_P1;SDS_P2;PMS_P1;PMS_P2;Temp;Humidity;BMP_temperature;BMP_pressure;BME280_temperature;BME280_humidity;BME280_pressure;Samples;Min_cycle;Max_cycle;Signal;HPM_P1;HPM_P2
2021/05/04 00:00:13;;;;;;;15.83;14.53;;;7.90;99.90;;;;;;4938015;29;20556;-77
2021/05/04 00:02:41;;;;;;;15.50;14.20;;;7.90;99.90;;;;;;4939282;29;20482;-77
2021/05/04 00:05:09;;;;;;;15.60;14.17;;;7.90;99.90;;;;;;4937845;29;20864;-77
2021/05/04 00:07:36;;;;;;;15.20;14.00;;;8.00;99.90;;;;;;4937872;29;20487;-77
2021/05/04 00:10:04;;;;;;;14.77;13.57;;;7.90;99.90;;;;;;4935102;29;20555;-77
2021/05/04 00:12:31;;;;;;;14.03;12.73;;;8.00;99.90;;;;;;4920001;29;20488;-79
2021/05/04 00:14:58;;;;;;;14.93;13.63;;;8.00;99.90;;;;;;4920197;29;20500;-78
2021/05/04 00:17:25;;;;;;;14.67;13.50;;;8.00;99.90;;;;;;4935745;29;20494;-78
2021/05/04 00:19:54;;;;;;;14.30;13.20;;;8.00;99.90;;;;;;4938903;29;20500;-78
2021/05/04 00:22:21;;;;;;;14.80;13.53;;;8.00;99.90;;;;;;4922891;29;20502;-78
2021/05/04 00:24:48;;;;;;;15.83;14.53;;;8.00;99.90;;;;;;4920737;29;20445;-78
2021/05/04 00:27:15;;;;;;;16.50;15.10;;;8.00;99.90;;;;;;4937437;29;20569;-78
2021/05/04 00:29:43;;;;;;;15.47;14.23;;;8.00;99.90;;;;;;4938699;29;20489;-78
2021/05/04 00:32:10;;;;;;;14.97;13.77;;;8.00;99.90;;;;;;4938511;29;20445;-78
2021/05/04 00:34:37;;;;;;;13.60;12.50;;;8.10;99.90;;;;;;4937907;29;20450;-78
2021/05/04 00:37:05;;;;;;;14.60;13.40;;;8.10;99.90;;;;;;4924772;29;20461;-78
2021/05/04 00:39:35;;;;;;;13.40;12.40;;;8.10;99.90;;;;;;4929832;29;20454;-78
2021/05/04 00:42:04;;;;;;;14.27;12.97;;;8.10;99.90;;;;;;4918769;29;20466;-78
2021/05/04 00:44:31;;;;;;;13.63;12.23;;;8.10;99.90;;;;;;4930634;29;20455;-78
2021/05/04 00:46:58;;;;;;;14.27;13.07;;;8.10;99.90;;;;;;4938522;29;20470;-78
2021/05/04 00:49:26;;;;;;;13.87;12.47;;;8.10;99.90;;;;;;4940232;29;20519;-77
2021/05/04 00:51:55;;;;;;;13.30;12.10;;;8.10;99.90;;;;;;4930292;28;20895;-77
2021/05/04 00:54:24;;;;;;;12.07;11.10;;;8.10;99.90;;;;;;4918138;29;20479;-77
2021/05/04 00:56:53;;;;;;;11.90;10.80;;;8.10;99.90;;;;;;4933552;29;20454;-77
2021/05/04 00:59:23;;;;;;;10.67;9.67;;;8.10;99.90;;;;;;4928890;29;20480;-77
2021/05/04 01:01:50;;;;;;;10.23;9.33;;;8.10;99.90;;;;;;4919066;29;20491;-77
2021/05/04 01:04:18;;;;;;;9.73;8.93;;;8.20;99.90;;;;;;4918056;29;20451;-77
2021/05/04 01:06:45;;;;;;;9.87;9.07;;;8.30;99.90;;;;;;4917874;29;20565;-77
2021/05/04 01:09:14;;;;;;;9.83;8.93;;;8.30;99.90;;;;;;4917767;29;20820;-77
2021/05/04 01:11:43;;;;;;;9.60;8.80;;;8.30;99.90;;;;;;4917599;29;20467;-77
2021/05/04 01:14:10;;;;;;;9.80;8.90;;;8.30;99.90;;;;;;4929793;28;20494;-77
2021/05/04 01:16:42;;;;;;;9.80;9.00;;;8.30;99.90;;;;;;4930250;29;20533;-77
2021/05/04 01:19:09;;;;;;;8.70;8.00;;;8.30;99.90;;;;;;4917665;29;20459;-77
2021/05/04 01:21:37;;;;;;;8.97;8.17;;;8.40;99.90;;;;;;4920658;29;20467;-77
2021/05/04 01:24:05;;;;;;;9.00;8.30;;;8.40;99.90;;;;;;4955503;29;20835;-77
2021/05/04 01:26:33;;;;;;;9.63;8.73;;;8.40;99.90;;;;;;4924358;28;20545;-77
2021/05/04 01:29:03;;;;;;;9.27;8.48;;;8.40;99.90;;;;;;4930862;29;20448;-77
2021/05/04 01:31:30;;;;;;;8.03;7.33;;;8.40;99.90;;;;;;4937566;29;20261;-77
2021/05/04 01:33:57;;;;;;;10.37;7.67;;;8.50;99.90;;;;;;4936029;29;20995;-77
2021/05/04 01:36:25;;;;;;;8.80;8.10;;;8.50;99.90;;;;;;4937551;29;20461;-77
2021/05/04 01:38:53;;;;;;;9.80;8.90;;;8.50;99.90;;;;;;4935362;29;20556;-77
2021/05/04 01:41:20;;;;;;;7.77;7.17;;;8.50;99.90;;;;;;4936314;29;20238;-77
2021/05/04 01:43:47;;;;;;;8.20;7.40;;;8.50;99.90;;;;;;4935106;29;20482;-77
2021/05/04 01:46:14;;;;;;;8.90;8.00;;;8.50;99.90;;;;;;4927265;29;20448;-78
2021/05/04 01:48:42;;;;;;;8.43;7.63;;;8.50;99.90;;;;;;4937356;29;20887;-78
2021/05/04 01:51:09;;;;;;;9.50;8.60;;;8.50;99.90;;;;;;4917583;29;20468;-78
2021/05/04 01:53:36;;;;;;;8.50;7.70;;;8.50;99.90;;;;;;4917090;29;20566;-78
2021/05/04 01:56:05;;;;;;;8.27;7.37;;;8.50;99.90;;;;;;4917218;29;20467;-78
2021/05/04 01:58:32;;;;;;;7.70;7.07;;;8.50;99.90;;;;;;4917401;29;20894;-77
2021/05/04 02:00:59;;;;;;;7.50;6.90;;;8.50;99.90;;;;;;4922265;29;20822;-77
2021/05/04 02:03:26;;;;;;;7.60;6.90;;;8.50;99.90;;;;;;4923525;29;20496;-77
2021/05/04 02:05:54;;;;;;;7.97;7.27;;;8.60;99.90;;;;;;4920449;29;20436;-77
2021/05/04 02:08:21;;;;;;;7.53;6.83;;;8.60;99.90;;;;;;4936960;29;20474;-77
2021/05/04 02:10:49;;;;;;;8.00;6.70;;;8.60;99.90;;;;;;4935850;29;20906;-77
2021/05/04 02:13:18;;;;;;;7.73;6.87;;;8.60;99.90;;;;;;4935752;29;20952;-78
2021/05/04 02:15:45;;;;;;;7.33;6.70;;;8.60;99.90;;;;;;4937092;29;21010;-78
2021/05/04 02:18:12;;;;;;;7.20;6.60;;;8.70;99.90;;;;;;4936447;29;20561;-78
2021/05/04 02:20:39;;;;;;;6.60;6.00;;;8.80;99.90;;;;;;4935916;29;20541;-78
2021/05/04 02:23:06;;;;;;;7.40;6.80;;;8.80;99.90;;;;;;4941182;29;20555;-78
2021/05/04 02:25:33;;;;;;;7.33;6.73;;;8.80;99.90;;;;;;4930940;29;20939;-78
2021/05/04 02:28:02;;;;;;;6.27;5.67;;;8.80;99.90;;;;;;4924338;29;20489;-78
2021/05/04 02:30:32;;;;;;;6.50;5.93;;;8.80;99.90;;;;;;4936131;29;20442;-78
2021/05/04 02:32:59;;;;;;;5.40;4.93;;;8.90;99.90;;;;;;4936259;29;21010;-78
2021/05/04 02:35:27;;;;;;;5.17;4.40;;;8.90;99.90;;;;;;4936293;29;20454;-78
2021/05/04 02:37:54;;;;;;;5.00;4.50;;;9.00;99.90;;;;;;4917949;29;20533;-78
2021/05/04 02:40:21;;;;;;;5.93;5.33;;;9.10;99.90;;;;;;4916898;29;20499;-78
2021/05/04 02:42:48;;;;;;;6.10;5.60;;;9.20;99.90;;;;;;4917224;29;20506;-78
2021/05/04 02:45:16;;;;;;;5.43;4.93;;;9.20;99.90;;;;;;4916915;29;20560;-78
2021/05/04 02:47:44;;;;;;;5.70;5.20;;;9.30;99.90;;;;;;4917046;29;20478;-78
2021/05/04 02:50:13;;;;;;;5.63;5.00;;;9.30;99.90;;;;;;4918342;29;20526;-78
2021/05/04 02:52:40;;;;;;;6.97;4.90;;;9.30;99.90;;;;;;4918273;29;20499;-78
2021/05/04 02:55:08;;;;;;;5.20;4.80;;;9.40;99.90;;;;;;4939278;29;20547;-78
2021/05/04 02:57:35;;;;;;;4.83;4.43;;;9.40;99.90;;;;;;4918343;29;20468;-78
2021/05/04 03:00:04;;;;;;;5.83;5.30;;;9.40;99.90;;;;;;4925295;29;20451;-77
2021/05/04 03:02:31;;;;;;;5.47;5.07;;;9.50;99.90;;;;;;4935805;29;20490;-78
2021/05/04 03:04:59;;;;;;;5.00;4.60;;;9.50;99.90;;;;;;4948231;29;20446;-78
2021/05/04 03:07:27;;;;;;;5.60;5.07;;;9.50;99.90;;;;;;4917985;29;20992;-78
2021/05/04 03:09:54;;;;;;;5.80;4.97;;;9.60;99.90;;;;;;4916141;29;20448;-78
2021/05/04 03:12:21;;;;;;;5.27;4.77;;;9.60;99.90;;;;;;4916346;29;20525;-78
2021/05/04 03:14:48;;;;;;;5.63;5.03;;;9.60;99.90;;;;;;4916545;29;20482;-78
2021/05/04 03:17:15;;;;;;;6.70;4.80;;;9.60;99.90;;;;;;4918070;29;20520;-78
2021/05/04 03:19:43;;;;;;;5.67;4.27;;;9.60;99.90;;;;;;4920477;29;20451;-78
2021/05/04 03:22:11;;;;;;;5.50;5.10;;;9.50;99.90;;;;;;4921280;29;20491;-78
2021/05/04 03:24:38;;;;;;;5.47;4.97;;;9.50;99.90;;;;;;4920888;29;20432;-78
2021/05/04 03:27:06;;;;;;;6.10;5.30;;;9.50;99.90;;;;;;4920636;29;20553;-78
2021/05/04 03:29:34;;;;;;;5.50;5.00;;;9.50;99.90;;;;;;4920813;29;20345;-78
2021/05/04 03:32:01;;;;;;;7.30;5.50;;;9.50;99.90;;;;;;4919452;29;20457;-78
2021/05/04 03:34:28;;;;;;;5.67;5.20;;;9.50;99.90;;;;;;4919427;29;20963;-78
2021/05/04 03:36:55;;;;;;;5.67;5.17;;;9.40;99.90;;;;;;4919324;29;20498;-78
2021/05/04 03:39:23;;;;;;;5.97;5.47;;;9.30;99.90;;;;;;4920590;29;20888;-78
2021/05/04 03:41:51;;;;;;;7.63;5.67;;;9.30;99.90;;;;;;4920532;29;20463;-78
2021/05/04 03:44:18;;;;;;;5.77;5.27;;;9.20;99.90;;;;;;4919352;29;20471;-78
2021/05/04 03:46:45;;;;;;;7.57;6.20;;;9.20;99.90;;;;;;4946130;29;20462;-77
2021/05/04 03:49:12;;;;;;;7.30;6.10;;;9.10;99.90;;;;;;4935301;29;20462;-78
2021/05/04 03:51:40;;;;;;;6.80;6.20;;;9.10;99.90;;;;;;4919262;29;20441;-77
2021/05/04 03:54:07;;;;;;;7.10;6.50;;;9.10;99.90;;;;;;4932328;29;20570;-77
2021/05/04 03:56:35;;;;;;;5.90;5.30;;;9.00;99.90;;;;;;4934733;29;20447;-77
2021/05/04 03:59:03;;;;;;;7.17;6.60;;;9.00;99.90;;;;;;4938061;29;20606;-77
2021/05/04 04:01:31;;;;;;;7.10;6.33;;;9.00;99.90;;;;;;4939560;29;20442;-77
2021/05/04 04:03:59;;;;;;;6.87;6.27;;;8.90;99.90;;;;;;4939166;29;20545;-77
2021/05/04 04:06:26;;;;;;;7.30;6.50;;;8.90;99.90;;;;;;4938929;29;20457;-77
2021/05/04 04:08:53;;;;;;;7.73;6.70;;;8.90;99.90;;;;;;4939315;29;20517;-77
2021/05/04 04:11:20;;;;;;;8.23;7.53;;;8.90;99.90;;;;;;4927418;29;20970;-77
2021/05/04 04:13:49;;;;;;;7.47;6.77;;;8.80;99.90;;;;;;4919944;29;20910;-77
2021/05/04 04:16:16;;;;;;;7.13;6.53;;;8.90;99.90;;;;;;4920190;29;20447;-77
2021/05/04 04:18:43;;;;;;;7.93;6.90;;;8.80;99.90;;;;;;4920172;29;20448;-77
2021/05/04 04:21:10;;;;;;;8.10;7.30;;;8.80;99.90;;;;;;4918628;29;20460;-77
2021/05/04 04:23:37;;;;;;;8.07;7.47;;;8.80;99.90;;;;;;4920517;29;20543;-77
2021/05/04 04:26:04;;;;;;;7.53;6.83;;;8.80;99.90;;;;;;4938068;29;20573;-77
2021/05/04 04:28:32;;;;;;;6.70;6.27;;;8.80;99.90;;;;;;4937327;29;20560;-77
2021/05/04 04:31:00;;;;;;;7.13;6.53;;;8.80;99.90;;;;;;4938713;29;20436;-78
2021/05/04 04:33:28;;;;;;;8.93;7.00;;;8.70;99.90;;;;;;4937488;29;20569;-77
2021/05/04 04:35:55;;;;;;;8.20;7.40;;;8.70;99.90;;;;;;4937948;29;20451;-77
2021/05/04 04:38:24;;;;;;;6.43;5.83;;;8.70;99.90;;;;;;4941184;29;20455;-78
2021/05/04 04:40:51;;;;;;;7.37;6.83;;;8.70;99.90;;;;;;4930286;29;21022;-78
2021/05/04 04:43:18;;;;;;;7.00;6.40;;;8.70;99.90;;;;;;4918255;29;20475;-77
2021/05/04 04:45:46;;;;;;;6.93;6.43;;;8.70;99.90;;;;;;4919517;29;20967;-77
2021/05/04 04:48:14;;;;;;;8.23;6.33;;;8.70;99.90;;;;;;4931552;29;21059;-78
2021/05/04 04:50:41;;;;;;;6.27;5.77;;;8.70;99.90;;;;;;4933252;29;20960;-77
2021/05/04 04:53:08;;;;;;;6.67;6.07;;;8.70;99.90;;;;;;4917813;29;20854;-77
2021/05/04 04:55:35;;;;;;;6.50;5.97;;;8.70;99.90;;;;;;4919294;29;20535;-77
2021/05/04 04:58:02;;;;;;;7.53;5.97;;;8.70;99.90;;;;;;4924575;29;20501;-77
2021/05/04 05:00:32;;;;;;;7.77;6.43;;;8.70;99.90;;;;;;4937738;29;20546;-77
2021/05/04 05:03:00;;;;;;;5.87;5.37;;;8.70;99.90;;;;;;4938050;29;20550;-77
2021/05/04 05:05:28;;;;;;;6.50;5.90;;;8.70;99.90;;;;;;4935212;29;20455;-78
2021/05/04 05:07:56;;;;;;;6.03;5.50;;;8.70;99.90;;;;;;4928403;29;20562;-78
2021/05/04 05:10:23;;;;;;;6.20;5.73;;;8.70;99.90;;;;;;4937927;29;20538;-77
2021/05/04 05:12:50;;;;;;;7.03;6.32;;;8.70;99.90;;;;;;4936838;29;20847;-78
2021/05/04 05:15:17;;;;;;;5.30;4.80;;;8.80;99.90;;;;;;4936583;29;20206;-78
2021/05/04 05:17:44;;;;;;;6.47;5.83;;;8.80;99.90;;;;;;4937776;29;20440;-77
2021/05/04 05:20:12;;;;;;;6.33;5.83;;;8.70;99.90;;;;;;4938044;29;20454;-77
2021/05/04 05:22:43;;;;;;;6.38;5.88;;;8.70;99.90;;;;;;4935550;29;20540;-77
2021/05/04 05:25:12;;;;;;;5.50;5.00;;;8.80;99.90;;;;;;4938095;29;20239;-78
2021/05/04 05:27:39;;;;;;;5.23;4.67;;;8.80;99.90;;;;;;4937495;29;20908;-78
2021/05/04 05:30:08;;;;;;;5.73;5.20;;;8.80;99.90;;;;;;4937504;29;20444;-77
2021/05/04 05:32:36;;;;;;;4.90;4.50;;;8.70;99.90;;;;;;4937434;29;20501;-77
2021/05/04 05:35:04;;;;;;;5.10;4.60;;;8.70;99.90;;;;;;4936546;29;20455;-77
2021/05/04 05:37:31;;;;;;;8.63;5.47;;;8.70;99.90;;;;;;4936243;29;20446;-77
2021/05/04 05:39:59;;;;;;;5.73;4.10;;;8.70;99.90;;;;;;4937164;29;20466;-77
2021/05/04 05:42:26;;;;;;;6.60;4.50;;;8.70;99.90;;;;;;4937387;29;20474;-78
2021/05/04 05:44:53;;;;;;;5.47;4.37;;;8.80;99.90;;;;;;4937442;29;20475;-78
2021/05/04 05:47:21;;;;;;;5.20;4.80;;;8.80;99.90;;;;;;4937280;29;20486;-78
2021/05/04 05:49:48;;;;;;;4.63;4.23;;;8.90;99.90;;;;;;4935898;29;20495;-78
2021/05/04 05:52:15;;;;;;;6.90;4.00;;;9.00;99.90;;;;;;4935831;29;20554;-78
2021/05/04 05:54:42;;;;;;;5.27;3.60;;;9.00;99.90;;;;;;4935977;29;20453;-78
2021/05/04 05:57:10;;;;;;;4.10;3.80;;;9.10;99.90;;;;;;4936032;29;20455;-78
2021/05/04 05:59:38;;;;;;;3.93;3.57;;;9.10;99.90;;;;;;4937328;29;20541;-78
2021/05/04 06:02:05;;;;;;;6.43;5.70;;;9.10;99.90;;;;;;4936149;29;20502;-78
2021/05/04 06:04:32;;;;;;;5.00;4.50;;;9.20;99.90;;;;;;4935989;29;20839;-78
2021/05/04 06:06:59;;;;;;;5.27;4.87;;;9.20;99.90;;;;;;4937191;29;20507;-79
2021/05/04 06:09:27;;;;;;;4.70;4.30;;;9.20;99.90;;;;;;4936613;29;20450;-79
2021/05/04 06:11:54;;;;;;;4.03;3.73;;;9.20;99.90;;;;;;4936736;29;20488;-79
2021/05/04 06:14:22;;;;;;;4.67;4.27;;;9.20;99.90;;;;;;4936625;29;20491;-78
2021/05/04 06:16:49;;;;;;;6.47;4.07;;;9.30;99.90;;;;;;4937798;29;20534;-78
2021/05/04 06:19:17;;;;;;;4.30;3.90;;;9.30;99.90;;;;;;4936994;29;20463;-78
2021/05/04 06:21:44;;;;;;;5.50;4.13;;;9.30;99.90;;;;;;4935841;29;20555;-78
2021/05/04 06:24:11;;;;;;;4.63;4.20;;;9.30;99.90;;;;;;4938002;29;20466;-78
2021/05/04 06:26:39;;;;;;;4.60;4.20;;;9.30;99.90;;;;;;4936653;29;20455;-78
2021/05/04 06:29:07;;;;;;;4.90;4.40;;;9.40;99.90;;;;;;4936374;29;20478;-78
2021/05/04 06:31:35;;;;;;;5.77;4.30;;;9.40;99.90;;;;;;4938168;29;20447;-78
2021/05/04 06:34:05;;;;;;;4.07;3.70;;;9.40;99.90;;;;;;4936580;29;20471;-78
2021/05/04 06:36:33;;;;;;;4.93;4.53;;;9.40;99.90;;;;;;4938722;29;20424;-78
2021/05/04 06:39:00;;;;;;;6.90;4.20;;;9.50;99.90;;;;;;4939589;29;20542;-78
2021/05/04 06:41:34;;;;;;;4.03;3.73;;;9.50;99.90;;;;;;4936897;29;20444;-78
2021/05/04 06:44:02;;;;;;;6.10;4.50;;;9.50;99.90;;;;;;4937081;29;20480;-79
2021/05/04 06:46:30;;;;;;;4.60;4.20;;;9.50;99.90;;;;;;4936766;29;20510;-79
2021/05/04 06:48:58;;;;;;;8.17;5.60;;;9.50;99.90;;;;;;4936399;29;20475;-79
2021/05/04 06:51:25;;;;;;;4.43;4.10;;;9.50;99.90;;;;;;4936470;29;20554;-79
2021/05/04 06:53:52;;;;;;;6.07;5.07;;;9.50;99.90;;;;;;4936045;29;20467;-79
2021/05/04 06:56:20;;;;;;;6.13;5.70;;;9.50;99.90;;;;;;4935426;29;20480;-79
2021/05/04 06:58:48;;;;;;;5.67;5.17;;;9.50;99.90;;;;;;4937573;29;20195;-79
2021/05/04 07:01:15;;;;;;;5.53;5.03;;;9.50;99.90;;;;;;4937700;29;20476;-79
2021/05/04 07:03:43;;;;;;;5.47;4.93;;;9.50;99.90;;;;;;4935801;29;20503;-79
2021/05/04 07:06:11;;;;;;;5.37;4.87;;;9.50;99.90;;;;;;4937338;29;20471;-78
2021/05/04 07:08:38;;;;;;;6.23;5.73;;;9.50;99.90;;;;;;4935436;29;20558;-78
2021/05/04 07:11:05;;;;;;;5.90;5.40;;;9.40;99.90;;;;;;4935841;29;20551;-78
2021/05/04 07:13:32;;;;;;;5.60;5.20;;;9.40;99.90;;;;;;4937199;29;20455;-78
2021/05/04 07:15:59;;;;;;;5.93;5.37;;;9.40;99.90;;;;;;4938081;29;20873;-78
2021/05/04 07:18:27;;;;;;;5.77;5.37;;;9.40;99.90;;;;;;4936052;29;20450;-78
2021/05/04 07:20:55;;;;;;;6.47;5.97;;;9.30;99.90;;;;;;4936863;29;20450;-78
2021/05/04 07:23:23;;;;;;;5.70;5.30;;;9.40;99.90;;;;;;4937854;29;20461;-79
2021/05/04 07:25:50;;;;;;;5.53;5.13;;;9.30;99.90;;;;;;4935148;29;20458;-79
2021/05/04 07:28:17;;;;;;;5.43;5.03;;;9.40;99.90;;;;;;4934740;29;20482;-79
2021/05/04 07:30:45;;;;;;;5.57;5.00;;;9.40;99.90;;;;;;4936216;29;20442;-78
2021/05/04 07:33:12;;;;;;;5.10;4.70;;;9.40;99.90;;;;;;4936261;29;21078;-78
2021/05/04 07:35:39;;;;;;;5.70;5.20;;;9.50;99.90;;;;;;4937062;29;20941;-78
2021/05/04 07:38:07;;;;;;;5.00;4.60;;;9.50;99.90;;;;;;4934961;29;20455;-78
2021/05/04 07:40:37;;;;;;;4.97;4.67;;;9.50;99.90;;;;;;4934737;29;20448;-78
2021/05/04 07:43:04;;;;;;;5.77;5.30;;;9.50;99.90;;;;;;4935725;29;20545;-78
2021/05/04 07:45:32;;;;;;;5.83;5.30;;;9.50;99.90;;;;;;4935808;29;20454;-78
2021/05/04 07:48:01;;;;;;;5.83;5.20;;;9.60;99.90;;;;;;4936569;29;20484;-78
2021/05/04 07:50:29;;;;;;;6.63;6.13;;;9.60;99.90;;;;;;4935784;29;20446;-78
2021/05/04 07:52:57;;;;;;;6.70;6.20;;;9.60;99.90;;;;;;4934461;29;20959;-78
2021/05/04 07:55:25;;;;;;;6.60;6.00;;;9.60;99.90;;;;;;4936103;29;20436;-78
2021/05/04 07:57:53;;;;;;;6.97;6.37;;;9.70;99.90;;;;;;4934795;29;20454;-78
2021/05/04 08:00:20;;;;;;;6.93;6.47;;;9.70;99.90;;;;;;4935102;29;20903;-78
2021/05/04 08:02:47;;;;;;;6.80;6.20;;;9.70;99.90;;;;;;4934612;29;20526;-78
2021/05/04 08:05:15;;;;;;;7.60;7.00;;;9.80;99.90;;;;;;4937637;29;20443;-78
2021/05/04 08:07:42;;;;;;;8.10;7.40;;;9.70;99.90;;;;;;4939309;29;20471;-78
2021/05/04 08:10:11;;;;;;;7.00;6.40;;;9.70;99.90;;;;;;4939392;29;20443;-78
2021/05/04 08:12:38;;;;;;;7.37;6.67;;;9.70;99.90;;;;;;4937975;29;20990;-78
2021/05/04 08:15:13;;;;;;;6.20;5.70;;;9.70;99.90;;;;;;4937857;29;20501;-77
2021/05/04 08:17:41;;;;;;;7.20;6.70;;;9.70;99.90;;;;;;4939177;29;20461;-78
2021/05/04 08:20:10;;;;;;;6.83;6.23;;;9.60;99.90;;;;;;4939111;29;20934;-78
2021/05/04 08:22:37;;;;;;;7.13;6.60;;;9.70;99.90;;;;;;4937645;29;20894;-78
2021/05/04 08:25:06;;;;;;;11.73;8.70;;;9.60;99.90;;;;;;4938878;29;20482;-78
2021/05/04 08:27:33;;;;;;;6.23;5.63;;;9.60;99.90;;;;;;4938716;29;20444;-78
2021/05/04 08:30:01;;;;;;;6.50;6.00;;;9.60;99.90;;;;;;4937485;29;20885;-78
2021/05/04 08:32:29;;;;;;;5.67;5.13;;;9.60;99.90;;;;;;4938683;29;20517;-78
2021/05/04 08:34:56;;;;;;;6.30;5.80;;;9.60;99.90;;;;;;4936753;29;20544;-78
2021/05/04 08:37:23;;;;;;;5.30;4.90;;;9.70;99.90;;;;;;4939187;29;20203;-78
2021/05/04 08:39:50;;;;;;;5.43;5.03;;;9.70;99.90;;;;;;4937399;29;20518;-78
2021/05/04 08:42:18;;;;;;;5.30;4.80;;;9.70;99.90;;;;;;4938873;29;20519;-79
2021/05/04 08:44:51;;;;;;;5.80;5.40;;;9.70;99.90;;;;;;4936343;29;20492;-78
2021/05/04 08:47:20;;;;;;;5.00;4.50;;;9.80;99.90;;;;;;4938600;29;20194;-78
2021/05/04 08:49:50;;;;;;;5.40;4.77;;;9.90;99.90;;;;;;4938614;29;20817;-78
2021/05/04 08:52:17;;;;;;;5.20;4.80;;;9.90;99.90;;;;;;4938203;29;20471;-79
2021/05/04 08:54:44;;;;;;;5.37;4.70;;;10.00;99.90;;;;;;4937142;29;20882;-78
2021/05/04 08:57:15;;;;;;;5.30;4.90;;;10.00;99.90;;;;;;4937047;29;20447;-78
2021/05/04 08:59:43;;;;;;;6.00;5.50;;;10.10;99.90;;;;;;4937176;29;20861;-78
2021/05/04 09:02:10;;;;;;;5.50;5.00;;;10.10;99.90;;;;;;4936833;29;20552;-78
2021/05/04 09:04:42;;;;;;;5.57;5.17;;;10.10;99.90;;;;;;4937448;29;20448;-78
2021/05/04 09:07:22;;;;;;;5.17;4.77;;;10.10;99.90;;;;;;4937091;29;20527;-78
2021/05/04 09:10:03;;;;;;;5.07;4.20;;;10.10;99.90;;;;;;4937020;29;20494;-78
2021/05/04 09:12:36;;;;;;;4.83;4.43;;;10.10;99.90;;;;;;4936647;29;20889;-78
2021/05/04 09:16:03;;;;;;;3.97;3.67;;;10.00;99.90;;;;;;4937270;29;20493;-78
2021/05/04 09:18:50;;;;;;;3.47;3.20;;;10.00;99.90;;;;;;4938124;29;20420;-78
2021/05/04 09:21:28;;;;;;;3.37;3.10;;;9.80;99.90;;;;;;4936628;29;20454;-78
2021/05/04 09:23:56;;;;;;;4.17;3.30;;;9.80;99.90;;;;;;4936397;29;21056;-78
2021/05/04 09:26:32;;;;;;;2.70;2.50;;;9.70;99.90;;;;;;4936397;29;20480;-77
2021/05/04 09:28:59;;;;;;;3.57;2.13;;;9.70;99.90;;;;;;4936656;29;20551;-77
2021/05/04 09:31:29;;;;;;;3.80;2.50;;;9.70;99.90;;;;;;4936333;29;20487;-77
2021/05/04 09:34:06;;;;;;;2.23;2.03;;;9.70;99.90;;;;;;4937436;29;20455;-77
2021/05/04 09:36:42;;;;;;;2.67;2.47;;;9.80;99.90;;;;;;4937733;29;20487;-77
2021/05/04 09:39:12;;;;;;;3.40;2.63;;;9.80;99.90;;;;;;4936244;29;20454;-77
2021/05/04 09:41:40;;;;;;;3.13;2.53;;;9.90;99.90;;;;;;4936171;29;20862;-77
2021/05/04 09:44:07;;;;;;;3.17;2.93;;;9.90;99.90;;;;;;4936010;29;20562;-78
2021/05/04 09:46:48;;;;;;;3.33;2.53;;;10.00;99.90;;;;;;4937773;29;20545;-78
2021/05/04 09:49:28;;;;;;;3.07;2.60;;;10.10;99.90;;;;;;4937581;29;20459;-78
2021/05/04 09:52:15;;;;;;;2.90;2.70;;;10.20;99.90;;;;;;4936094;29;20436;-77
2021/05/04 09:54:44;;;;;;;3.77;3.43;;;10.30;99.90;;;;;;4937579;29;20427;-77
2021/05/04 09:57:38;;;;;;;3.73;3.33;;;10.50;99.90;;;;;;4935991;29;21020;-77
2021/05/04 10:00:08;;;;;;;3.50;3.30;;;10.60;99.90;;;;;;4937581;29;20423;-77
2021/05/04 10:02:36;;;;;;;4.27;3.90;;;10.80;99.90;;;;;;4935730;29;20530;-78
2021/05/04 10:05:06;;;;;;;4.07;3.70;;;11.00;99.90;;;;;;4937315;29;20451;-78
2021/05/04 10:07:34;;;;;;;4.40;4.10;;;11.10;99.90;;;;;;4936278;29;20452;-78
2021/05/04 10:10:03;;;;;;;4.13;3.80;;;11.20;99.90;;;;;;4935240;29;20485;-78
2021/05/04 10:12:30;;;;;;;4.23;3.83;;;11.40;99.90;;;;;;4936853;29;20314;-78
2021/05/04 10:15:00;;;;;;;3.97;3.57;;;11.50;99.90;;;;;;4936896;29;20451;-77
2021/05/04 10:17:32;;;;;;;7.53;3.30;;;11.50;99.90;;;;;;4935689;29;20487;-78
2021/05/04 10:20:01;;;;;;;4.30;3.00;;;11.60;99.90;;;;;;4934875;29;20457;-78
2021/05/04 10:22:28;;;;;;;6.47;2.53;;;11.60;99.90;;;;;;4935762;29;20459;-78
2021/05/04 10:24:56;;;;;;;2.93;2.40;;;11.70;99.90;;;;;;4935892;29;20487;-78
2021/05/04 10:27:24;;;;;;;2.60;2.27;;;11.80;99.90;;;;;;4935362;29;20448;-78
2021/05/04 10:29:52;;;;;;;2.60;2.10;;;11.80;99.90;;;;;;4936414;29;20550;-78
2021/05/04 10:32:51;;;;;;;2.37;2.10;;;11.90;99.90;;;;;;4935458;29;21037;-79
2021/05/04 10:35:43;;;;;;;4.30;2.30;;;11.90;99.90;;;;;;4935373;29;20491;-79
2021/05/04 10:38:12;;;;;;;2.00;1.90;;;12.00;99.90;;;;;;4936301;29;20444;-79
2021/05/04 10:40:41;;;;;;;3.90;2.10;;;12.00;99.90;;;;;;4935607;29;20451;-79
2021/05/04 10:43:40;;;;;;;3.73;2.23;;;12.00;99.90;;;;;;4935854;29;20468;-79
2021/05/04 10:46:12;;;;;;;3.30;1.90;;;12.10;99.90;;;;;;4936208;29;20482;-79
2021/05/04 10:48:46;;;;;;;3.90;1.90;;;12.30;99.90;;;;;;4937163;29;21040;-78
2021/05/04 10:51:14;;;;;;;4.10;2.17;;;12.50;99.90;;;;;;4935878;29;20455;-78
2021/05/04 10:54:05;;;;;;;4.40;2.50;;;12.70;99.90;;;;;;4936682;29;20488;-78
2021/05/04 10:56:37;;;;;;;3.20;1.87;;;13.00;99.90;;;;;;4938936;29;20475;-78
2021/05/04 10:59:06;;;;;;;3.00;2.40;;;13.10;99.90;;;;;;4939296;29;20425;-78
2021/05/04 11:01:35;;;;;;;2.83;2.53;;;13.10;99.90;;;;;;4935660;29;20487;-78
2021/05/04 11:04:04;;;;;;;3.10;2.80;;;13.10;99.90;;;;;;4937175;29;21008;-79
2021/05/04 11:06:42;;;;;;;3.40;2.47;;;13.20;99.90;;;;;;4936904;29;20477;-78
2021/05/04 11:09:11;;;;;;;2.90;2.53;;;13.10;99.90;;;;;;4936490;29;20519;-78
2021/05/04 11:11:41;;;;;;;3.40;2.70;;;13.10;99.90;;;;;;4935821;29;20499;-78
2021/05/04 11:14:28;;;;;;;3.10;2.80;;;13.10;99.90;;;;;;4935482;29;20530;-79
2021/05/04 11:17:22;;;;;;;4.07;3.70;;;13.00;99.90;;;;;;4938267;29;20483;-79
2021/05/04 11:19:49;;;;;;;4.33;3.20;;;13.00;99.90;;;;;;4929740;29;20455;-79
2021/05/04 11:22:23;;;;;;;4.90;3.47;;;12.90;99.90;;;;;;4936690;29;20567;-79
2021/05/04 11:24:52;;;;;;;3.77;3.20;;;12.90;99.90;;;;;;4938358;29;20444;-79
2021/05/04 11:27:31;;;;;;;3.60;3.30;;;12.90;99.90;;;;;;4937287;29;20879;-79
2021/05/04 11:30:02;;;;;;;7.07;3.87;;;12.80;99.90;;;;;;4937129;29;20550;-79
2021/05/04 11:32:41;;;;;;;4.60;3.47;;;12.90;99.90;;;;;;4940157;29;20978;-79
2021/05/04 11:35:10;;;;;;;5.70;3.40;;;12.80;99.90;;;;;;4940835;29;20463;-79
2021/05/04 11:37:46;;;;;;;4.60;3.77;;;12.80;99.90;;;;;;4938853;29;20538;-79
2021/05/04 11:40:24;;;;;;;4.30;3.90;;;12.70;99.90;;;;;;4937949;29;20571;-77
2021/05/04 11:42:53;;;;;;;5.90;3.77;;;12.70;99.90;;;;;;4940357;29;20455;-78
2021/05/04 11:45:24;;;;;;;6.30;3.70;;;12.50;99.90;;;;;;4938205;29;20471;-78
2021/05/04 11:47:56;;;;;;;4.88;3.40;;;12.50;99.90;;;;;;4938384;29;20864;-80
2021/05/04 11:50:25;;;;;;;3.70;3.17;;;12.40;99.90;;;;;;4938998;29;20235;-78
2021/05/04 11:52:55;;;;;;;4.47;3.67;;;12.30;99.90;;;;;;4938832;29;20882;-79
2021/05/04 11:55:24;;;;;;;5.73;4.57;;;12.20;99.90;;;;;;4939625;29;20976;-79
2021/05/04 11:57:58;;;;;;;5.30;4.60;;;12.20;99.90;;;;;;4939352;29;20455;-78
2021/05/04 12:00:27;;;;;;;4.93;3.80;;;12.20;99.90;;;;;;4939672;29;20464;-78
2021/05/04 12:02:54;;;;;;;4.17;3.33;;;12.20;99.90;;;;;;4941480;29;20547;-78
2021/05/04 12:05:26;;;;;;;2.97;2.67;;;12.10;99.90;;;;;;4937735;29;20510;-78
2021/05/04 12:07:53;;;;;;;4.87;2.70;;;12.10;99.90;;;;;;4939098;29;20436;-78
2021/05/04 12:10:32;;;;;;;3.53;2.30;;;12.00;99.90;;;;;;4938077;29;20471;-78
2021/05/04 12:13:02;;;;;;;2.17;1.53;;;12.00;99.90;;;;;;4939896;29;20470;-79
2021/05/04 12:15:31;;;;;;;2.13;1.20;;;11.90;99.90;;;;;;4938439;29;20456;-79
2021/05/04 12:18:07;;;;;;;2.70;1.43;;;11.80;99.90;;;;;;4938141;29;20447;-78
2021/05/04 12:20:38;;;;;;;2.23;1.97;;;11.60;99.90;;;;;;4939347;29;20435;-78
2021/05/04 12:23:07;;;;;;;4.63;1.43;;;11.50;99.90;;;;;;4938867;29;20921;-79
2021/05/04 12:25:40;;;;;;;3.03;2.13;;;11.40;99.90;;;;;;4939719;29;20466;-79
2021/05/04 12:28:09;;;;;;;3.33;2.03;;;11.30;99.90;;;;;;4939665;29;20490;-78
2021/05/04 12:30:37;;;;;;;3.90;1.77;;;11.40;99.90;;;;;;4940655;29;20531;-79
2021/05/04 12:33:05;;;;;;;2.50;1.53;;;11.50;99.90;;;;;;4947507;29;20874;-79
2021/05/04 12:35:33;;;;;;;2.13;1.53;;;11.50;99.90;;;;;;4948458;29;20495;-79
2021/05/04 12:38:05;;;;;;;1.50;1.40;;;11.60;99.90;;;;;;4948352;29;20455;-79
2021/05/04 12:40:33;;;;;;;1.60;1.50;;;11.60;99.90;;;;;;4940690;29;20534;-77
2021/05/04 12:43:14;;;;;;;17.00;2.50;;;11.60;99.90;;;;;;4937192;29;20578;-77
2021/05/04 12:46:21;;;;;;;2.67;1.60;;;11.80;99.90;;;;;;4938505;29;20424;-77
2021/05/04 12:48:53;;;;;;;3.27;1.90;;;11.90;99.90;;;;;;4937417;29;20475;-77
2021/05/04 12:51:27;;;;;;;3.50;2.20;;;12.00;99.90;;;;;;4935990;29;20821;-77
2021/05/04 12:54:05;;;;;;;4.13;2.57;;;12.00;99.90;;;;;;4941461;29;20559;-78
2021/05/04 12:56:34;;;;;;;2.10;1.93;;;12.10;99.90;;;;;;4953386;29;20431;-78
2021/05/04 12:59:06;;;;;;;3.00;2.10;;;12.10;99.90;;;;;;4950877;29;20447;-79
2021/05/04 13:01:50;;;;;;;4.27;2.23;;;12.20;99.90;;;;;;4949583;29;20942;-78
2021/05/04 13:04:38;;;;;;;4.75;2.30;;;12.10;99.90;;;;;;4939620;29;20477;-78